0CD4 weather

Kauffman Heliport
Denver, Colorado, United States

Public forecast

Using degrees Fahrenheit for public forecast. Weather courtesy of forecast.io.

METAR (pilot weather report)

Closest report is Erie Municipal Airport, 11.0 nm (20.4 km) SW. Retrieved 2019/08/21 19:31 UTC (0 seconds ago):

KEIK 211931Z AUTO 00000KT 10SM 27/12 A3023 RMK AO2 T02740116

TAF (pilot weather forecast)

Closest forecast is Rocky Mountain Metropolitan Airport, 17.8 nm (32.9 km) SW. Retrieved 2019/08/21 18:27 UTC (40 minutes ago):

TAF KBJC 211724Z 2118/2218 05008KT P6SM SCT035 FM212100 08010KT P6SM BKN050 TEMPO 2122/2202 VRB20G35KT -TSRA BKN050CB FM220300 30010KT P6SM BKN060 FM220800 34008KT P6SM FEW020 SCT080 SCT150 FM221400 02007KT P6SM SCT100